Time;durP1;ratioP1;P1;durP2;ratioP2;P2;SDS_P1;SDS_P2;PMS_P1;PMS_P2;Temp;Humidity;BMP_temperature;BMP_pressure;BME280_temperature;BME280_humidity;BME280_pressure;Samples;Min_cycle;Max_cycle;Signal;HPM_P1;HPM_P2
2022/09/26 00:01:54;;;;;;;23.27;16.63;;;13.50;82.10;;;;;;4995889;28;20022;-17
2022/09/26 00:04:26;;;;;;;22.67;15.35;;;13.50;82.10;;;;;;4995626;28;20030;-15
2022/09/26 00:06:55;;;;;;;19.83;14.35;;;13.40;82.10;;;;;;4995641;28;20026;-17
2022/09/26 00:09:23;;;;;;;16.65;12.23;;;13.50;82.10;;;;;;4996061;28;20096;-15
2022/09/26 00:11:50;;;;;;;20.48;14.80;;;13.50;82.10;;;;;;4996018;28;20022;-15
2022/09/26 00:14:24;;;;;;;18.40;13.60;;;13.50;82.00;;;;;;4995957;28;20033;-16
2022/09/26 00:16:50;;;;;;;20.20;14.00;;;13.40;82.00;;;;;;4995567;28;20030;-15
2022/09/26 00:19:16;;;;;;;19.25;14.10;;;13.40;82.10;;;;;;4995270;28;20076;-16
2022/09/26 00:21:43;;;;;;;18.92;13.55;;;13.40;82.20;;;;;;4994914;28;20023;-18
2022/09/26 00:24:09;;;;;;;19.73;14.43;;;13.40;81.90;;;;;;4995111;28;20045;-15
2022/09/26 00:26:36;;;;;;;19.63;13.85;;;13.40;81.90;;;;;;4995130;28;20033;-18
2022/09/26 00:29:06;;;;;;;18.80;13.38;;;13.40;81.70;;;;;;4994879;28;20034;-17
2022/09/26 00:31:34;;;;;;;22.30;15.70;;;13.40;81.60;;;;;;4994967;28;20525;-18
2022/09/26 00:34:01;;;;;;;25.70;18.35;;;13.40;81.70;;;;;;4994745;28;20199;-16
2022/09/26 00:36:28;;;;;;;23.80;16.58;;;13.30;81.80;;;;;;4995087;28;20444;-16
2022/09/26 00:38:54;;;;;;;16.45;12.35;;;13.30;81.90;;;;;;4994678;28;20050;-16
2022/09/26 00:41:20;;;;;;;17.88;12.63;;;13.20;81.80;;;;;;4994862;28;20081;-16
2022/09/26 00:44:23;;;;;;;24.92;17.58;;;13.20;81.70;;;;;;4994854;28;20057;-16
2022/09/26 00:46:50;;;;;;;24.80;17.05;;;13.20;81.90;;;;;;4994575;28;20069;-17
2022/09/26 00:49:30;;;;;;;30.15;19.48;;;13.20;81.90;;;;;;4994555;28;20041;-16
2022/09/26 00:51:55;;;;;;;24.33;16.73;;;13.20;81.90;;;;;;4994714;28;20029;-15
2022/09/26 00:54:22;;;;;;;20.17;15.13;;;13.10;82.10;;;;;;4994617;28;20026;-16
2022/09/26 00:56:51;;;;;;;23.10;16.70;;;13.10;82.00;;;;;;4994586;28;20029;-15
2022/09/26 00:59:33;;;;;;;30.85;21.17;;;13.10;82.10;;;;;;4994419;28;20116;-16
2022/09/26 01:01:59;;;;;;;22.42;15.50;;;13.10;82.20;;;;;;4994535;28;20033;-16
2022/09/26 01:04:28;;;;;;;18.88;13.65;;;13.00;82.40;;;;;;4994372;28;20482;-16
2022/09/26 01:06:59;;;;;;;18.10;12.90;;;13.00;82.20;;;;;;4994257;28;20560;-15
2022/09/26 01:09:26;;;;;;;19.48;13.70;;;13.00;82.10;;;;;;4994286;28;20470;-16
2022/09/26 01:11:53;;;;;;;17.77;12.80;;;12.90;82.20;;;;;;4995117;28;20084;-16
2022/09/26 01:14:20;;;;;;;16.90;13.05;;;12.90;82.10;;;;;;4994820;28;20057;-15
2022/09/26 01:16:53;;;;;;;27.02;19.05;;;12.90;82.10;;;;;;4994361;28;20053;-18
2022/09/26 01:19:30;;;;;;;24.90;18.02;;;12.90;82.30;;;;;;4994054;28;20469;-16
2022/09/26 01:22:05;;;;;;;19.00;13.52;;;12.90;82.30;;;;;;4994166;28;20057;-16
2022/09/26 01:24:54;;;;;;;17.20;12.57;;;12.80;82.20;;;;;;4992924;28;20398;-18
2022/09/26 01:27:57;;;;;;;19.08;13.48;;;12.80;82.30;;;;;;4996630;28;20052;-15
2022/09/26 01:30:26;;;;;;;20.02;14.00;;;12.80;82.30;;;;;;4994620;28;20026;-15
2022/09/26 01:32:56;;;;;;;19.02;12.73;;;12.80;82.30;;;;;;4993596;28;20042;-15
2022/09/26 01:35:27;;;;;;;18.40;12.85;;;12.70;82.20;;;;;;4993692;28;20379;-18
2022/09/26 01:38:47;;;;;;;22.30;15.40;;;12.70;82.20;;;;;;4994235;28;20054;-16
2022/09/26 01:41:46;;;;;;;18.40;13.48;;;12.70;82.20;;;;;;5011507;28;20085;-16
2022/09/26 01:44:27;;;;;;;20.33;14.05;;;12.70;82.20;;;;;;5012399;28;20465;-16
2022/09/26 01:47:16;;;;;;;19.27;13.25;;;12.70;82.20;;;;;;5011315;28;20113;-18
2022/09/26 01:49:53;;;;;;;22.35;14.85;;;12.70;82.10;;;;;;5011453;28;20038;-16
2022/09/26 01:52:27;;;;;;;26.05;17.40;;;12.70;82.10;;;;;;5011791;28;20033;-16
2022/09/26 01:55:23;;;;;;;24.30;17.08;;;12.80;82.30;;;;;;5011121;28;20103;-16
2022/09/26 01:57:56;;;;;;;26.33;18.15;;;12.80;82.30;;;;;;5008789;28;20084;-16
2022/09/26 02:00:22;;;;;;;27.27;19.08;;;12.70;82.40;;;;;;5011513;28;20080;-15
2022/09/26 02:02:49;;;;;;;23.73;17.05;;;12.70;82.50;;;;;;5011223;28;20112;-16
2022/09/26 02:05:28;;;;;;;23.50;15.30;;;12.70;82.50;;;;;;5011235;28;20041;-17
2022/09/26 02:08:09;;;;;;;26.63;18.17;;;12.70;82.50;;;;;;5011736;28;20125;-16
2022/09/26 02:10:52;;;;;;;31.25;21.25;;;12.70;82.60;;;;;;5011326;28;20033;-17
2022/09/26 02:13:28;;;;;;;24.80;16.23;;;12.70;82.90;;;;;;5011237;28;20022;-16
2022/09/26 02:16:01;;;;;;;33.03;21.23;;;12.70;82.80;;;;;;4997174;28;20049;-15
2022/09/26 02:18:45;;;;;;;43.07;26.90;;;12.70;82.90;;;;;;4993845;28;20089;-16
2022/09/26 02:21:22;;;;;;;34.15;22.45;;;12.70;82.80;;;;;;4993338;28;20034;-17
2022/09/26 02:23:50;;;;;;;31.80;19.73;;;12.70;82.90;;;;;;4993476;28;20034;-16
2022/09/26 02:26:17;;;;;;;40.38;24.23;;;12.70;83.20;;;;;;4993763;28;20026;-17
2022/09/26 02:28:44;;;;;;;28.77;19.17;;;12.70;83.20;;;;;;4994019;28;20034;-16
2022/09/26 02:31:13;;;;;;;25.80;17.83;;;12.70;83.20;;;;;;4993595;28;20088;-15
2022/09/26 02:33:40;;;;;;;35.35;21.77;;;12.60;83.20;;;;;;4993259;28;20050;-16
2022/09/26 02:36:09;;;;;;;44.13;28.38;;;12.60;83.10;;;;;;4993314;28;20394;-16
2022/09/26 02:38:36;;;;;;;53.05;30.05;;;12.50;83.10;;;;;;4993352;28;20053;-16
2022/09/26 02:41:12;;;;;;;37.65;23.90;;;12.50;83.30;;;;;;4993424;28;20109;-17
2022/09/26 02:43:38;;;;;;;51.22;31.00;;;12.50;83.50;;;;;;4993343;28;20367;-16
2022/09/26 02:46:18;;;;;;;45.00;27.17;;;12.50;84.10;;;;;;4995994;28;20030;-16
2022/09/26 02:49:02;;;;;;;40.47;25.05;;;12.50;83.80;;;;;;4997120;28;20023;-16
2022/09/26 02:51:53;;;;;;;34.65;22.30;;;12.50;83.80;;;;;;4997223;28;20062;-16
2022/09/26 02:54:43;;;;;;;35.60;22.77;;;12.50;83.80;;;;;;4996882;28;20041;-15
2022/09/26 02:57:17;;;;;;;24.00;15.77;;;12.50;83.80;;;;;;4996895;28;20478;-16
2022/09/26 02:59:58;;;;;;;30.48;20.27;;;12.50;83.60;;;;;;4997039;28;20065;-18
2022/09/26 03:02:38;;;;;;;31.15;19.80;;;12.50;83.60;;;;;;4996760;28;20439;-16
2022/09/26 03:05:20;;;;;;;28.70;18.70;;;12.50;83.50;;;;;;4996657;28;20022;-15
2022/09/26 03:08:03;;;;;;;28.42;18.48;;;12.50;83.50;;;;;;4996962;28;20034;-18
2022/09/26 03:10:31;;;;;;;29.73;18.83;;;12.40;83.40;;;;;;4996647;28;20058;-16
2022/09/26 03:13:02;;;;;;;26.73;18.50;;;12.40;83.40;;;;;;4996612;28;20261;-16
2022/09/26 03:15:30;;;;;;;20.83;15.25;;;12.40;83.40;;;;;;4997122;28;20441;-15
2022/09/26 03:17:57;;;;;;;30.10;20.10;;;12.40;83.30;;;;;;4996682;28;20572;-16
2022/09/26 03:20:24;;;;;;;30.63;20.42;;;12.40;83.40;;;;;;4996268;28;20129;-17
2022/09/26 03:22:51;;;;;;;25.25;15.85;;;12.30;83.40;;;;;;4996886;28;20034;-16
2022/09/26 03:25:24;;;;;;;26.48;16.45;;;12.30;83.40;;;;;;4996338;28;20026;-16
2022/09/26 03:27:52;;;;;;;29.58;19.27;;;12.20;83.40;;;;;;4996311;28;20027;-16
2022/09/26 03:30:20;;;;;;;30.35;20.85;;;12.30;83.40;;;;;;4996300;28;20157;-16
2022/09/26 03:32:47;;;;;;;29.58;19.27;;;12.20;83.50;;;;;;4995914;28;20129;-16
2022/09/26 03:35:12;;;;;;;35.33;22.55;;;12.20;83.40;;;;;;4996487;28;20023;-15
2022/09/26 03:37:38;;;;;;;37.17;24.05;;;12.30;83.50;;;;;;4994856;28;20033;-16
2022/09/26 03:40:08;;;;;;;32.83;22.15;;;12.30;83.50;;;;;;4996167;28;20458;-16
2022/09/26 03:42:35;;;;;;;40.13;25.77;;;12.30;83.60;;;;;;4996389;28;20038;-15
2022/09/26 03:45:03;;;;;;;38.10;24.00;;;12.30;83.70;;;;;;4995698;28;20022;-18
2022/09/26 03:47:30;;;;;;;54.45;32.97;;;12.30;83.90;;;;;;4996119;28;20126;-18
2022/09/26 03:49:56;;;;;;;43.92;27.50;;;12.30;84.00;;;;;;4996071;28;20041;-18
2022/09/26 03:52:23;;;;;;;57.40;31.35;;;12.30;84.00;;;;;;4996164;28;20485;-18
2022/09/26 03:54:49;;;;;;;54.20;30.83;;;12.30;84.00;;;;;;4995539;28;20077;-16
2022/09/26 03:57:17;;;;;;;52.95;30.45;;;12.20;84.40;;;;;;4995142;28;20058;-18
2022/09/26 03:59:43;;;;;;;34.47;21.83;;;12.20;84.50;;;;;;4995907;28;20030;-16
2022/09/26 04:02:09;;;;;;;36.50;23.50;;;12.20;84.30;;;;;;4996492;28;20030;-16
2022/09/26 04:04:35;;;;;;;36.80;23.30;;;12.20;84.30;;;;;;4995512;28;20085;-19
2022/09/26 04:07:01;;;;;;;29.25;19.65;;;12.10;84.20;;;;;;4995365;28;20038;-17
2022/09/26 04:09:27;;;;;;;28.10;18.08;;;12.00;84.20;;;;;;4995564;28;20054;-16
2022/09/26 04:11:53;;;;;;;26.80;17.90;;;11.90;84.20;;;;;;4995421;28;20026;-17
2022/09/26 04:14:19;;;;;;;27.95;16.80;;;11.90;84.20;;;;;;4995580;28;20060;-16
2022/09/26 04:16:46;;;;;;;40.63;26.00;;;11.90;84.20;;;;;;4995346;28;20076;-18
2022/09/26 04:19:13;;;;;;;35.60;23.23;;;11.90;84.30;;;;;;4995463;28;20419;-15
2022/09/26 04:21:40;;;;;;;34.45;23.08;;;11.80;84.50;;;;;;4995541;28;20030;-17
2022/09/26 04:24:14;;;;;;;28.08;18.42;;;11.70;84.60;;;;;;4995782;28;20030;-17
2022/09/26 04:26:42;;;;;;;25.40;16.45;;;11.70;84.40;;;;;;4995182;28;20069;-16
2022/09/26 04:29:09;;;;;;;27.80;18.75;;;11.70;84.40;;;;;;4995133;28;20429;-16
2022/09/26 04:31:36;;;;;;;36.28;23.13;;;11.60;84.40;;;;;;4995012;28;20065;-16
2022/09/26 04:34:05;;;;;;;27.17;17.77;;;11.60;84.70;;;;;;4994709;28;20058;-15
2022/09/26 04:36:32;;;;;;;48.30;26.63;;;11.60;84.40;;;;;;4994947;28;20038;-15
2022/09/26 04:38:59;;;;;;;27.40;17.33;;;11.50;84.40;;;;;;4994762;28;20596;-16
2022/09/26 04:41:27;;;;;;;29.45;18.23;;;11.50;84.30;;;;;;4995258;28;20072;-18
2022/09/26 04:44:00;;;;;;;28.95;18.98;;;11.40;84.50;;;;;;4994822;28;20022;-18
2022/09/26 04:46:28;;;;;;;27.85;18.83;;;11.40;84.50;;;;;;4994761;28;20040;-16
2022/09/26 04:48:56;;;;;;;26.67;16.92;;;11.40;84.50;;;;;;4995039;28;20109;-16
2022/09/26 04:51:24;;;;;;;34.20;20.20;;;11.40;84.50;;;;;;4994676;28;20050;-15
2022/09/26 04:53:51;;;;;;;27.80;17.80;;;11.40;84.50;;;;;;4994810;28;20019;-14
2022/09/26 04:56:20;;;;;;;28.55;19.23;;;11.40;84.40;;;;;;4994557;28;20498;-15
2022/09/26 04:58:46;;;;;;;31.73;20.60;;;11.40;84.40;;;;;;4994522;28;20027;-16
2022/09/26 05:01:15;;;;;;;30.60;19.17;;;11.40;84.40;;;;;;4995384;28;20060;-15
2022/09/26 05:03:41;;;;;;;31.95;19.85;;;11.40;84.40;;;;;;4994368;28;20026;-14
2022/09/26 05:06:08;;;;;;;25.90;16.48;;;11.40;84.40;;;;;;4994701;28;20034;-16
2022/09/26 05:08:35;;;;;;;37.85;23.88;;;11.50;84.30;;;;;;4994549;28;20038;-16
2022/09/26 05:11:01;;;;;;;39.60;24.63;;;11.50;84.30;;;;;;4994116;28;20486;-15
2022/09/26 05:13:28;;;;;;;35.55;21.75;;;11.40;84.30;;;;;;4994372;28;20029;-17
2022/09/26 05:15:54;;;;;;;49.55;29.38;;;11.40;84.30;;;;;;4994505;28;20448;-15
2022/09/26 05:18:23;;;;;;;36.50;21.92;;;11.40;84.40;;;;;;4994332;28;20497;-16
2022/09/26 05:20:49;;;;;;;47.60;24.58;;;11.30;84.50;;;;;;4992751;28;20038;-16
2022/09/26 05:26:19;;;;;;;33.83;19.08;;;11.40;84.80;;;;;;4994449;28;20029;-15
2022/09/26 05:29:03;;;;;;;61.78;26.45;;;11.30;84.70;;;;;;4994433;28;20031;-15
2022/09/26 05:31:35;;;;;;;258.73;38.90;;;11.40;84.80;;;;;;4994390;28;20077;-16
2022/09/26 05:34:09;;;;;;;38.35;20.50;;;11.40;84.70;;;;;;4993767;28;20509;-16
2022/09/26 05:36:36;;;;;;;45.47;22.05;;;11.40;84.80;;;;;;4994231;28;20018;-17
2022/09/26 05:39:05;;;;;;;61.80;24.10;;;11.40;84.80;;;;;;4994055;28;20030;-17
2022/09/26 05:41:32;;;;;;;38.80;20.88;;;11.40;85.00;;;;;;4994151;28;20113;-17
2022/09/26 05:43:58;;;;;;;55.47;20.27;;;11.50;85.00;;;;;;4994193;28;20026;-18
2022/09/26 05:46:30;;;;;;;43.33;20.98;;;11.50;85.00;;;;;;4992606;28;20379;-16
2022/09/26 05:48:56;;;;;;;36.33;19.70;;;11.60;84.90;;;;;;4994153;28;20375;-16
2022/09/26 05:51:23;;;;;;;32.67;19.67;;;11.60;84.90;;;;;;4993754;28;20026;-17
2022/09/26 05:53:50;;;;;;;106.30;25.40;;;11.80;85.00;;;;;;4993774;28;20031;-16
2022/09/26 05:56:18;;;;;;;202.02;35.83;;;11.90;85.30;;;;;;4994053;28;20034;-16
2022/09/26 05:58:44;;;;;;;104.18;26.90;;;11.90;86.50;;;;;;4993813;28;20402;-16
2022/09/26 06:01:13;;;;;;;57.50;20.90;;;11.90;86.60;;;;;;4994280;28;20031;-15
2022/09/26 06:03:43;;;;;;;147.55;33.70;;;11.90;86.50;;;;;;4994085;28;20018;-15
2022/09/26 06:06:15;;;;;;;145.88;33.30;;;12.00;87.00;;;;;;4993959;28;20026;-16
2022/09/26 06:08:42;;;;;;;184.35;34.42;;;12.00;87.60;;;;;;4994125;28;20034;-18
2022/09/26 06:11:12;;;;;;;86.15;29.15;;;11.90;87.70;;;;;;4993441;28;20019;-17
2022/09/26 06:13:42;;;;;;;78.78;25.00;;;11.90;87.60;;;;;;4993689;28;20113;-17
2022/09/26 06:16:17;;;;;;;58.38;24.75;;;11.90;87.70;;;;;;4993629;28;20494;-15
2022/09/26 06:18:43;;;;;;;141.93;30.88;;;11.90;87.60;;;;;;4993801;28;20089;-15
2022/09/26 06:21:11;;;;;;;153.80;33.13;;;12.00;87.70;;;;;;4996264;28;20030;-15
2022/09/26 06:23:38;;;;;;;100.85;29.02;;;12.10;87.60;;;;;;4997725;28;20034;-16
2022/09/26 06:26:07;;;;;;;118.25;25.88;;;12.10;87.20;;;;;;4997733;28;20033;-18
2022/09/26 06:28:34;;;;;;;44.53;21.77;;;12.10;86.80;;;;;;4997325;28;20493;-16
2022/09/26 06:31:11;;;;;;;40.33;19.17;;;12.20;86.60;;;;;;4997447;28;20045;-15
2022/09/26 06:33:37;;;;;;;166.35;32.97;;;12.30;86.30;;;;;;4997184;28;20108;-16
2022/09/26 06:36:06;;;;;;;59.85;21.83;;;12.40;86.30;;;;;;5012653;28;20466;-16
2022/09/26 06:38:33;;;;;;;69.47;24.05;;;12.50;86.10;;;;;;4997479;28;20030;-16
2022/09/26 06:40:59;;;;;;;75.90;24.80;;;12.60;86.10;;;;;;4996846;28;20030;-17
2022/09/26 06:43:25;;;;;;;49.47;22.75;;;12.70;85.90;;;;;;4997330;28;20046;-18
2022/09/26 06:45:52;;;;;;;195.60;37.85;;;12.80;85.80;;;;;;4997051;28;20453;-18
2022/09/26 06:48:21;;;;;;;41.50;23.63;;;12.90;85.80;;;;;;4996901;28;20042;-18
2022/09/26 06:50:59;;;;;;;78.28;31.00;;;12.90;85.60;;;;;;4997039;28;20085;-18
2022/09/26 06:53:26;;;;;;;55.15;28.83;;;12.90;85.50;;;;;;4997221;28;20030;-16
2022/09/26 06:55:52;;;;;;;45.47;25.00;;;13.00;85.90;;;;;;4997117;28;20041;-17
2022/09/26 06:58:17;;;;;;;43.08;22.98;;;13.10;85.80;;;;;;5011967;28;20023;-16
2022/09/26 07:00:43;;;;;;;44.47;25.25;;;13.30;85.80;;;;;;4997028;28;20501;-16
2022/09/26 07:03:12;;;;;;;39.22;23.13;;;13.50;85.70;;;;;;4996870;28;20513;-18
2022/09/26 07:05:38;;;;;;;48.97;30.20;;;13.70;85.20;;;;;;4996703;28;20482;-16
2022/09/26 07:08:04;;;;;;;46.67;27.80;;;13.90;85.20;;;;;;5075334;22;20057;-16
2022/09/26 07:10:33;;;;;;;47.75;28.98;;;14.00;85.20;;;;;;5036163;28;20454;-17
2022/09/26 07:13:04;;;;;;;42.88;26.75;;;14.10;85.10;;;;;;5036009;28;20025;-17
2022/09/26 07:15:32;;;;;;;41.92;25.42;;;14.20;84.90;;;;;;5036056;28;20510;-18
2022/09/26 07:18:02;;;;;;;43.72;25.55;;;14.30;84.90;;;;;;5036076;28;20049;-19
2022/09/26 07:20:31;;;;;;;39.20;25.02;;;14.40;84.90;;;;;;5035808;28;20022;-19
2022/09/26 07:23:07;;;;;;;54.47;33.65;;;14.60;84.60;;;;;;5035867;28;20029;-18
2022/09/26 07:25:33;;;;;;;37.45;24.33;;;14.90;84.10;;;;;;5035721;28;20105;-16
2022/09/26 07:28:00;;;;;;;43.03;26.38;;;15.00;83.60;;;;;;5034458;28;20123;-17
2022/09/26 07:30:28;;;;;;;42.10;26.25;;;15.10;83.70;;;;;;5035715;28;20010;-19
2022/09/26 07:33:02;;;;;;;40.67;25.65;;;15.20;83.90;;;;;;5033996;28;20497;-18
2022/09/26 07:35:32;;;;;;;42.95;27.02;;;15.40;83.70;;;;;;5035687;28;20025;-18
2022/09/26 07:37:59;;;;;;;48.33;31.30;;;15.60;83.70;;;;;;5035897;28;20492;-17
2022/09/26 07:40:26;;;;;;;42.88;27.08;;;15.80;83.60;;;;;;5035438;28;20061;-18
2022/09/26 07:42:52;;;;;;;59.42;37.13;;;16.00;83.00;;;;;;5035084;28;20427;-19
2022/09/26 07:50:09;;;;;;;50.83;34.22;;;16.20;82.80;;;;;;5035676;28;20029;-18
2022/09/26 07:50:57;;;;;;;59.25;36.08;;;16.50;83.50;;;;;;5035363;28;20051;-16
2022/09/26 07:53:27;;;;;;;56.75;36.03;;;16.60;83.00;;;;;;5033870;28;20397;-17
2022/09/26 07:56:09;;;;;;;49.28;31.73;;;16.70;83.20;;;;;;5035415;28;20031;-17
2022/09/26 07:58:38;;;;;;;52.15;33.28;;;16.80;82.70;;;;;;5035193;28;20472;-19
2022/09/26 08:01:11;;;;;;;56.80;36.28;;;16.90;82.60;;;;;;5034810;28;20080;-17
2022/09/26 08:03:39;;;;;;;47.25;30.88;;;16.90;83.00;;;;;;5035182;28;20030;-17
2022/09/26 08:06:09;;;;;;;45.55;30.02;;;16.90;81.90;;;;;;5035245;28;20028;-19
2022/09/26 08:08:35;;;;;;;39.63;27.13;;;16.90;82.00;;;;;;5034599;28;20045;-17
2022/09/26 08:11:02;;;;;;;48.28;31.50;;;16.80;82.30;;;;;;5034689;28;20144;-19
2022/09/26 08:13:30;;;;;;;41.22;26.70;;;16.70;82.20;;;;;;5035095;28;20029;-17
2022/09/26 08:16:03;;;;;;;48.83;31.17;;;16.70;82.20;;;;;;5034735;28;20036;-18
2022/09/26 08:18:29;;;;;;;48.20;30.35;;;16.60;82.40;;;;;;5035034;28;20459;-18
2022/09/26 08:20:55;;;;;;;51.92;32.88;;;16.50;82.50;;;;;;5034463;28;20032;-16
2022/09/26 08:23:21;;;;;;;45.78;30.55;;;16.50;82.90;;;;;;5034489;28;20025;-17
2022/09/26 08:25:47;;;;;;;47.10;30.55;;;16.60;83.00;;;;;;5034640;28;20032;-17
2022/09/26 08:28:13;;;;;;;47.33;31.08;;;16.70;82.80;;;;;;5034682;28;20026;-16
2022/09/26 08:30:39;;;;;;;46.47;29.88;;;16.80;83.00;;;;;;5034569;28;20024;-18
2022/09/26 08:33:07;;;;;;;40.95;26.23;;;16.80;82.40;;;;;;5034326;28;20032;-18
2022/09/26 08:35:40;;;;;;;39.65;27.52;;;16.90;82.30;;;;;;5035471;28;20021;-18
2022/09/26 08:38:07;;;;;;;46.28;30.67;;;17.10;82.40;;;;;;5034571;28;20030;-19
2022/09/26 08:40:51;;;;;;;48.53;31.13;;;17.20;82.10;;;;;;5034476;28;20030;-17
2022/09/26 08:43:38;;;;;;;42.53;27.83;;;17.30;81.90;;;;;;5034605;28;20041;-17
2022/09/26 08:49:14;;;;;;;43.92;29.23;;;17.50;81.60;;;;;;5012229;28;20033;-17
2022/09/26 08:51:45;;;;;;;49.45;31.70;;;17.60;81.10;;;;;;5012301;28;20033;-16
2022/09/26 08:54:13;;;;;;;45.90;28.85;;;17.70;80.80;;;;;;5012085;28;20037;-18
2022/09/26 08:56:46;;;;;;;44.63;29.85;;;17.70;80.10;;;;;;5012244;28;20037;-16
2022/09/26 08:59:24;;;;;;;48.72;31.25;;;17.80;80.20;;;;;;4964157;28;20569;-17
2022/09/26 09:01:53;;;;;;;45.38;29.17;;;17.90;79.80;;;;;;5011926;28;20074;-16
2022/09/26 09:04:56;;;;;;;48.53;31.45;;;18.00;80.30;;;;;;5012279;28;20139;-17
2022/09/26 09:07:24;;;;;;;41.10;27.35;;;18.10;79.50;;;;;;5012265;28;20421;-16
2022/09/26 09:09:56;;;;;;;43.80;28.98;;;18.20;79.60;;;;;;5011794;28;20096;-16
2022/09/26 09:13:07;;;;;;;43.70;28.45;;;18.40;79.10;;;;;;5011919;28;20041;-17
2022/09/26 09:15:38;;;;;;;42.67;26.77;;;18.40;77.40;;;;;;5011788;28;20026;-16
2022/09/26 09:18:11;;;;;;;39.90;26.70;;;18.40;77.60;;;;;;5080869;23;20124;-16
2022/09/26 09:21:00;;;;;;;45.22;28.92;;;18.50;77.60;;;;;;5033548;28;20496;-15
2022/09/26 09:23:28;;;;;;;41.70;27.77;;;18.50;77.00;;;;;;5033852;28;20032;-16
2022/09/26 09:26:25;;;;;;;38.03;26.00;;;18.70;77.70;;;;;;5033775;28;20108;-16
2022/09/26 09:29:15;;;;;;;37.67;25.75;;;18.90;77.10;;;;;;5033628;28;20029;-16
2022/09/26 09:31:44;;;;;;;37.05;25.58;;;19.00;76.60;;;;;;5033410;28;20021;-15
2022/09/26 09:34:30;;;;;;;34.90;24.05;;;19.10;76.40;;;;;;5033392;28;20143;-16
2022/09/26 09:37:07;;;;;;;39.22;25.02;;;19.20;76.20;;;;;;5033138;28;20029;-16
2022/09/26 09:39:37;;;;;;;30.83;20.38;;;19.20;75.80;;;;;;5033628;28;20049;-15
2022/09/26 09:42:16;;;;;;;36.67;24.35;;;19.30;75.90;;;;;;5033280;28;20030;-16
2022/09/26 09:44:46;;;;;;;37.85;25.88;;;19.40;75.20;;;;;;5033421;28;20022;-16
2022/09/26 09:47:14;;;;;;;40.92;27.00;;;19.40;74.80;;;;;;5033176;28;20381;-15
2022/09/26 09:49:42;;;;;;;34.75;24.08;;;19.40;74.80;;;;;;5033574;28;20020;-15
2022/09/26 09:52:29;;;;;;;33.97;22.88;;;19.30;75.10;;;;;;5033103;28;20022;-15
2022/09/26 09:55:17;;;;;;;36.47;24.35;;;19.30;75.40;;;;;;5033080;28;20018;-16
2022/09/26 09:57:52;;;;;;;40.58;27.48;;;19.40;74.90;;;;;;5033347;28;20393;-15
2022/09/26 10:00:23;;;;;;;36.13;24.58;;;19.50;74.10;;;;;;5033371;28;20033;-15
2022/09/26 10:03:00;;;;;;;33.97;23.50;;;19.50;74.40;;;;;;5033101;28;20029;-16
2022/09/26 10:05:29;;;;;;;34.55;22.27;;;19.60;74.00;;;;;;5033050;28;20071;-16
2022/09/26 10:07:57;;;;;;;32.13;22.17;;;19.80;73.80;;;;;;5033576;28;20072;-15
2022/09/26 10:10:40;;;;;;;31.27;22.08;;;20.00;72.40;;;;;;5032964;28;20022;-15
2022/09/26 10:13:09;;;;;;;37.85;24.88;;;20.20;71.30;;;;;;5032821;28;20078;-15
2022/09/26 10:16:00;;;;;;;32.50;22.67;;;20.30;70.90;;;;;;5033183;28;20017;-15
2022/09/26 10:18:26;;;;;;;33.10;23.08;;;20.40;69.90;;;;;;5032363;28;20630;-15
2022/09/26 10:21:10;;;;;;;34.95;24.48;;;20.50;69.60;;;;;;5032733;28;20042;-15
2022/09/26 10:23:44;;;;;;;36.17;25.42;;;20.60;69.30;;;;;;5032867;28;20026;-15
2022/09/26 10:26:10;;;;;;;;;;;20.60;69.60;;;;;;5033269;28;20030;-16
2022/09/26 10:28:47;;;;;;;32.55;22.58;;;20.70;69.90;;;;;;5032925;28;19920;-14
2022/09/26 10:31:23;;;;;;;30.80;22.33;;;20.80;69.10;;;;;;5033035;28;20481;-15
2022/09/26 10:33:59;;;;;;;33.25;24.15;;;20.90;68.70;;;;;;5032832;28;20116;-16
2022/09/26 10:36:35;;;;;;;28.83;20.27;;;21.10;68.40;;;;;;5033125;28;20025;-16
2022/09/26 10:42:00;;;;;;;29.60;21.80;;;21.60;67.00;;;;;;5033068;28;20087;-15
2022/09/26 10:44:35;;;;;;;27.42;20.60;;;21.80;66.90;;;;;;5032764;28;20186;-16
2022/09/26 10:47:07;;;;;;;30.02;22.40;;;21.90;66.20;;;;;;5032393;28;20523;-16
2022/09/26 10:49:57;;;;;;;28.90;21.52;;;22.20;64.90;;;;;;5033033;28;20033;-15
2022/09/26 10:52:28;;;;;;;27.88;21.45;;;22.30;64.80;;;;;;5032133;28;20029;-16
2022/09/26 10:55:05;;;;;;;30.15;21.13;;;22.50;64.50;;;;;;5032350;28;20075;-16
2022/09/26 10:57:44;;;;;;;31.50;23.27;;;22.70;63.80;;;;;;5032589;28;20021;-16
2022/09/26 11:00:40;;;;;;;28.90;20.63;;;22.80;61.80;;;;;;5032788;28;20546;-16
2022/09/26 11:03:12;;;;;;;30.67;23.52;;;23.00;61.80;;;;;;5031645;28;20026;-16
2022/09/26 11:05:57;;;;;;;30.42;22.15;;;23.30;60.90;;;;;;5032915;28;20032;-15
2022/09/26 11:08:36;;;;;;;31.30;23.90;;;23.80;60.20;;;;;;5036109;28;20498;-15
2022/09/26 11:11:12;;;;;;;31.70;24.50;;;24.20;59.00;;;;;;5036117;28;20037;-16
2022/09/26 11:13:49;;;;;;;35.28;27.45;;;24.60;58.30;;;;;;5036388;28;20026;-15
2022/09/26 11:16:18;;;;;;;32.88;26.10;;;24.90;56.70;;;;;;5035866;28;20086;-16
2022/09/26 11:18:50;;;;;;;30.35;24.02;;;25.20;54.90;;;;;;5036236;28;20033;-15
2022/09/26 11:21:28;;;;;;;30.45;24.13;;;25.50;54.60;;;;;;5036631;28;20038;-15
2022/09/26 11:24:11;;;;;;;27.17;22.55;;;25.60;53.90;;;;;;5036462;28;20037;-16
2022/09/26 11:27:04;;;;;;;30.02;23.65;;;25.90;53.50;;;;;;5036090;28;20038;-16
2022/09/26 11:30:01;;;;;;;28.20;22.05;;;26.20;53.60;;;;;;5035759;28;20044;-16
2022/09/26 11:32:39;;;;;;;27.45;22.77;;;26.50;52.10;;;;;;5035904;28;20108;-16
2022/09/26 11:35:13;;;;;;;25.52;21.02;;;26.90;53.30;;;;;;5035164;28;20057;-16
2022/09/26 11:38:11;;;;;;;28.30;21.80;;;27.30;52.00;;;;;;5035895;28;20104;-16
2022/09/26 11:41:16;;;;;;;32.45;26.38;;;27.70;51.60;;;;;;5035706;28;20049;-16
2022/09/26 11:43:50;;;;;;;23.08;19.58;;;28.20;50.20;;;;;;5035846;28;20022;-16
2022/09/26 11:46:45;;;;;;;;;;;28.30;50.10;;;;;;5036031;28;20026;-19
2022/09/26 11:49:20;;;;;;;21.60;17.35;;;28.40;48.00;;;;;;5031269;28;20264;-16
2022/09/26 11:52:17;;;;;;;23.90;20.02;;;28.60;48.40;;;;;;5035902;28;20022;-16
2022/09/26 11:54:56;;;;;;;22.88;18.92;;;29.00;48.40;;;;;;5034051;28;20120;-16
2022/09/26 11:57:36;;;;;;;24.95;20.45;;;29.40;46.60;;;;;;5035145;28;20025;-16
2022/09/26 12:00:14;;;;;;;19.13;16.67;;;29.40;44.70;;;;;;5035369;28;20404;-15
2022/09/26 12:02:54;;;;;;;25.95;22.63;;;29.60;45.00;;;;;;5035003;28;20457;-15
2022/09/26 12:05:43;;;;;;;31.55;25.23;;;29.90;45.10;;;;;;5035049;28;20017;-15
2022/09/26 12:08:39;;;;;;;29.60;25.77;;;29.90;45.20;;;;;;5035137;28;20036;-16
2022/09/26 12:11:18;;;;;;;18.77;16.00;;;29.60;45.30;;;;;;5034733;28;20041;-15
2022/09/26 12:13:54;;;;;;;20.25;17.92;;;29.20;47.10;;;;;;5034847;28;20040;-16
2022/09/26 12:16:34;;;;;;;22.17;19.10;;;29.40;45.60;;;;;;5034525;28;20033;-16
2022/09/26 12:19:12;;;;;;;23.05;20.17;;;29.70;45.70;;;;;;5033839;28;20107;-16
2022/09/26 12:22:27;;;;;;;14.88;13.15;;;29.60;44.80;;;;;;5034900;28;20049;-15
2022/09/26 12:24:50;;;;;;;21.80;18.15;;;29.30;45.40;;;;;;5034510;28;20120;-16
2022/09/26 12:27:42;;;;;;;20.92;16.90;;;29.30;44.70;;;;;;5034888;28;20044;-16
2022/09/26 12:30:16;;;;;;;15.45;13.38;;;29.30;42.70;;;;;;5034739;28;20057;-15
2022/09/26 12:32:55;;;;;;;18.65;15.95;;;29.40;44.20;;;;;;5034716;28;20029;-15
2022/09/26 12:35:30;;;;;;;17.55;14.82;;;29.50;43.80;;;;;;5033270;28;20580;-17
2022/09/26 12:38:31;;;;;;;23.52;19.60;;;29.60;42.80;;;;;;5034755;28;20035;-17
2022/09/26 12:41:01;;;;;;;17.67;15.45;;;29.90;42.90;;;;;;5034299;28;20420;-16
2022/09/26 12:44:12;;;;;;;17.08;15.27;;;30.00;43.20;;;;;;5034584;28;20030;-15
2022/09/26 12:46:46;;;;;;;21.15;18.85;;;30.10;42.10;;;;;;5032260;28;20056;-16
2022/09/26 12:50:08;;;;;;;22.50;19.75;;;30.10;41.70;;;;;;5032720;28;20492;-16
2022/09/26 12:53:04;;;;;;;13.68;11.68;;;30.10;42.00;;;;;;4973778;28;20023;-16
2022/09/26 12:55:42;;;;;;;16.10;14.30;;;30.00;43.30;;;;;;4973390;28;20395;-15
2022/09/26 12:58:39;;;;;;;12.43;10.98;;;30.10;44.00;;;;;;5017880;28;20034;-16
2022/09/26 13:01:16;;;;;;;11.25;9.40;;;30.40;43.30;;;;;;5031707;28;20052;-15
2022/09/26 13:03:51;;;;;;;12.27;10.35;;;30.90;42.20;;;;;;5031975;28;20041;-16
2022/09/26 13:06:34;;;;;;;12.32;10.52;;;31.30;41.40;;;;;;5031791;28;20092;-16
2022/09/26 13:09:09;;;;;;;9.48;7.13;;;31.60;37.50;;;;;;5031600;28;20025;-16
2022/09/26 13:11:55;;;;;;;9.18;7.20;;;31.90;38.90;;;;;;5032532;28;20035;-16
2022/09/26 13:15:04;;;;;;;8.45;6.90;;;32.10;38.80;;;;;;5031811;28;20476;-16